Sarben, Nebraska
Current Conditions -  °F | °C
As of 2:15 PM on Saturday 22 Nov 2014 (Local Time) from KOGA Reporting Station
Clear Clear  
Wind Chill: 63°   Ceiling: Unl
Heat Index: 63°   Visibility: 10mi
Dew Point: 24°   Wind: 0mph
Humidity: 23%   Direction: NA
Pressure: 29.55"   Gusts: NA
Location:  41.2105°N, 101.376°W
Report Text: KOGA 222115Z AUTO 00000KT 10SM CLR 17/M05 A2955 RMK AO2 T01701047
Loading
Personal Weather Stations






























Interactive Weather Map New forecast layout! Learn more

10-Day Weather Forecast

Advertisements
Track Severe Weather on mobile